Time;durP1;ratioP1;P1;durP2;ratioP2;P2;SDS_P1;SDS_P2;PMS_P1;PMS_P2;Temp;Humidity;BMP_temperature;BMP_pressure;BME280_temperature;BME280_humidity;BME280_pressure;Samples;Min_cycle;Max_cycle;Signal;HPM_P1;HPM_P2
2022/02/28 00:00:13;;;;;;;2.50;2.40;;;;;;;1.17;66.04;102505.22;6162680;23;20114;-66
2022/02/28 00:02:40;;;;;;;2.65;2.55;;;;;;;1.33;66.66;102562.38;6148980;23;20008;-67
2022/02/28 00:05:07;;;;;;;2.90;2.80;;;;;;;1.32;67.17;102558.03;6143334;23;20021;-67
2022/02/28 00:07:34;;;;;;;2.58;2.47;;;;;;;1.75;67.10;102655.31;6111056;23;21087;-67
2022/02/28 00:10:01;;;;;;;2.70;2.60;;;;;;;1.74;67.68;102663.06;6144106;23;20013;-66
2022/02/28 00:12:27;;;;;;;4.63;4.43;;;;;;;0.99;67.17;102521.28;6106404;23;20013;-67
2022/02/28 00:14:54;;;;;;;3.72;3.47;;;;;;;1.44;68.12;102612.53;6116599;23;20021;-68
2022/02/28 00:17:20;;;;;;;4.45;4.25;;;;;;;1.75;67.72;102657.06;6105481;23;20041;-68
2022/02/28 00:19:47;;;;;;;2.70;2.60;;;;;;;1.72;67.56;102654.41;6107810;23;20080;-67
2022/02/28 00:22:13;;;;;;;3.58;3.45;;;;;;;1.60;67.59;102629.19;6088737;23;20349;-68
2022/02/28 00:24:39;;;;;;;3.00;2.90;;;;;;;1.65;68.01;102663.78;6095313;23;20477;-68
2022/02/28 00:27:06;;;;;;;3.10;3.00;;;;;;;1.58;68.32;102656.75;6125261;23;20023;-68
2022/02/28 00:29:32;;;;;;;3.55;3.45;;;;;;;1.65;68.37;102643.09;6101246;23;20116;-68
2022/02/28 00:31:59;;;;;;;2.67;2.58;;;;;;;0.88;68.19;102517.69;6114481;23;20013;-67
2022/02/28 00:34:25;;;;;;;4.20;4.00;;;;;;;1.25;68.20;102592.41;6097047;23;20132;-67
2022/02/28 00:36:52;;;;;;;2.72;2.63;;;;;;;1.25;68.47;102593.28;6099295;23;20027;-66
2022/02/28 00:39:18;;;;;;;3.92;3.78;;;;;;;1.33;68.63;102624.44;6105707;23;20014;-68
2022/02/28 00:41:45;;;;;;;3.33;3.20;;;;;;;0.90;68.39;102564.22;6102809;23;20109;-68
2022/02/28 00:44:11;;;;;;;2.65;2.55;;;;;;;1.46;69.16;102652.25;6071319;23;20026;-68
2022/02/28 00:46:40;;;;;;;2.70;2.60;;;;;;;1.30;69.44;102629.56;6104315;23;20017;-67
2022/02/28 00:49:07;;;;;;;2.53;2.42;;;;;;;1.41;69.54;102648.72;6124496;23;20033;-67
2022/02/28 00:51:34;;;;;;;3.10;3.00;;;;;;;1.37;69.20;102662.44;6100724;23;20084;-67
2022/02/28 00:54:00;;;;;;;2.60;2.50;;;;;;;1.35;69.60;102654.66;6094273;23;20021;-67
2022/02/28 00:56:27;;;;;;;4.65;4.45;;;;;;;1.30;70.17;102655.41;6088557;23;20576;-67
2022/02/28 00:58:53;;;;;;;2.70;2.60;;;;;;;1.29;69.84;102658.88;6109724;23;20048;-67
2022/02/28 01:01:19;;;;;;;4.28;4.07;;;;;;;1.24;70.22;102660.47;6093473;23;20002;-67
2022/02/28 01:03:46;;;;;;;2.83;2.72;;;;;;;1.25;70.20;102667.41;6141426;23;20018;-67
2022/02/28 01:06:13;;;;;;;3.60;3.47;;;;;;;-0.19;70.34;102438.19;6106699;23;20022;-68
2022/02/28 01:08:39;;;;;;;2.85;2.75;;;;;;;1.02;70.84;102647.16;6104410;23;20053;-67
2022/02/28 01:11:06;;;;;;;2.65;2.55;;;;;;;-0.49;70.53;102391.13;6138783;23;20028;-66
2022/02/28 01:13:33;;;;;;;2.50;2.40;;;;;;;0.32;71.12;102538.13;6103369;23;20049;-67
2022/02/28 01:16:00;;;;;;;2.45;2.35;;;;;;;0.92;70.80;102628.03;6115698;23;20046;-67
2022/02/28 01:18:26;;;;;;;4.28;4.07;;;;;;;1.15;70.36;102654.31;6148514;23;20363;-68
2022/02/28 01:20:53;;;;;;;2.70;2.60;;;;;;;-0.15;70.20;102461.47;6130369;23;20473;-68
2022/02/28 01:23:19;;;;;;;4.38;4.18;;;;;;;1.15;70.15;102656.88;6141533;23;20096;-67
2022/02/28 01:25:48;;;;;;;2.80;2.70;;;;;;;0.49;70.62;102556.56;6138907;23;20513;-67
2022/02/28 01:28:15;;;;;;;2.67;2.58;;;;;;;1.05;70.60;102651.53;6141471;23;20097;-68
2022/02/28 01:30:41;;;;;;;2.97;2.88;;;;;;;0.41;70.39;102551.25;6124859;23;20036;-66
2022/02/28 01:33:08;;;;;;;2.60;2.50;;;;;;;0.45;70.27;102552.19;6168008;23;20036;-66
2022/02/28 01:35:34;;;;;;;2.90;2.80;;;;;;;1.01;70.91;102667.81;6126562;23;20084;-66
2022/02/28 01:38:01;;;;;;;2.70;2.60;;;;;;;0.91;71.10;102664.19;6168979;23;20044;-66
2022/02/28 01:40:28;;;;;;;4.10;3.90;;;;;;;0.25;71.75;102551.78;6156055;23;20068;-66
2022/02/28 01:42:55;;;;;;;2.50;2.40;;;;;;;0.68;71.36;102625.84;6155093;23;20773;-66
2022/02/28 01:45:22;;;;;;;4.35;4.15;;;;;;;0.25;71.61;102596.53;6162116;23;20394;-67
2022/02/28 01:47:54;;;;;;;2.83;2.72;;;;;;;0.28;71.06;102570.78;6136226;23;20041;-67
2022/02/28 01:50:22;;;;;;;4.57;4.38;;;;;;;0.48;71.76;102599.63;6162054;23;20547;-68
2022/02/28 01:52:49;;;;;;;2.60;2.50;;;;;;;0.28;71.29;102569.91;6124934;23;20025;-67
2022/02/28 01:55:17;;;;;;;3.70;3.58;;;;;;;0.88;71.96;102664.13;6125839;23;20030;-67
2022/02/28 01:57:45;;;;;;;2.60;2.50;;;;;;;0.36;71.66;102589.00;6145818;23;20047;-67
2022/02/28 02:00:15;;;;;;;2.90;2.80;;;;;;;0.85;71.25;102662.34;6108192;23;20096;-67
2022/02/28 02:02:42;;;;;;;2.75;2.65;;;;;;;0.06;71.79;102558.25;6159785;23;20477;-67
2022/02/28 02:05:09;;;;;;;2.40;2.30;;;;;;;-0.87;71.89;102396.34;6136589;23;20534;-66
2022/02/28 02:07:35;;;;;;;2.53;2.42;;;;;;;0.68;72.50;102654.28;6173282;23;20034;-66
2022/02/28 02:10:08;;;;;;;2.50;2.40;;;;;;;0.69;72.67;102650.84;6148084;23;20554;-66
2022/02/28 02:12:35;;;;;;;2.60;2.50;;;;;;;0.32;72.20;102587.19;6119850;23;20173;-66
2022/02/28 02:15:09;;;;;;;2.50;2.40;;;;;;;-0.59;72.21;102443.34;6155567;23;20029;-66
2022/02/28 02:17:37;;;;;;;2.63;2.53;;;;;;;-0.12;73.17;102530.34;6139332;23;20084;-67
2022/02/28 02:20:09;;;;;;;2.40;2.30;;;;;;;0.57;72.11;102643.69;6148894;23;20482;-66
2022/02/28 02:22:36;;;;;;;2.60;2.50;;;;;;;-0.99;72.90;102416.69;6144039;23;20020;-66
2022/02/28 02:25:03;;;;;;;2.33;2.22;;;;;;;0.30;72.55;102656.03;6141835;23;20485;-66
2022/02/28 02:27:31;;;;;;;3.10;3.00;;;;;;;0.29;73.22;102647.41;6139737;23;20166;-68
2022/02/28 02:29:57;;;;;;;2.50;2.40;;;;;;;0.14;73.80;102627.31;6112893;23;20033;-67
2022/02/28 02:32:24;;;;;;;4.28;4.07;;;;;;;-0.04;73.72;102585.56;6173318;23;20028;-67
2022/02/28 02:34:50;;;;;;;2.50;2.40;;;;;;;-0.04;73.35;102588.16;6175082;23;20181;-67
2022/02/28 02:37:19;;;;;;;4.10;3.90;;;;;;;-0.19;73.60;102550.00;6141046;23;20279;-68
2022/02/28 02:39:45;;;;;;;2.60;2.50;;;;;;;0.32;73.55;102644.91;6144378;23;20029;-65
2022/02/28 02:42:12;;;;;;;2.80;2.70;;;;;;;0.48;73.11;102648.69;6155977;23;20275;-66
2022/02/28 02:44:38;;;;;;;2.63;2.53;;;;;;;0.41;73.11;102649.38;6167117;23;20023;-66
2022/02/28 02:47:05;;;;;;;2.85;2.75;;;;;;;0.38;72.64;102650.22;6160617;23;20426;-65
2022/02/28 02:49:32;;;;;;;2.40;2.30;;;;;;;0.36;73.24;102648.41;6181716;23;20098;-65
2022/02/28 02:51:59;;;;;;;2.67;2.58;;;;;;;0.44;73.21;102648.56;6149043;23;20201;-65
2022/02/28 02:54:25;;;;;;;4.45;4.25;;;;;;;0.41;72.74;102656.28;6170119;23;20044;-66
2022/02/28 02:56:51;;;;;;;2.70;2.60;;;;;;;0.47;72.96;102646.06;6155326;23;20092;-66
2022/02/28 02:59:18;;;;;;;3.88;3.72;;;;;;;0.49;72.15;102647.84;6172210;23;20024;-65
2022/02/28 03:01:44;;;;;;;2.60;2.50;;;;;;;0.26;72.21;102615.47;6143564;23;20013;-65
2022/02/28 03:04:11;;;;;;;2.50;2.40;;;;;;;0.55;72.22;102647.09;6144591;23;20080;-65
2022/02/28 03:06:37;;;;;;;2.60;2.50;;;;;;;0.54;71.93;102645.34;6145833;23;20849;-66
2022/02/28 03:09:04;;;;;;;2.50;2.40;;;;;;;0.53;71.71;102649.66;6148126;23;20041;-65
2022/02/28 03:11:30;;;;;;;2.85;2.75;;;;;;;0.41;71.53;102623.56;6174808;23;20012;-65
2022/02/28 03:13:57;;;;;;;2.30;2.20;;;;;;;0.53;72.06;102647.06;6154279;23;20154;-65
2022/02/28 03:16:23;;;;;;;4.25;4.05;;;;;;;0.22;71.98;102585.28;6180215;23;20488;-66
2022/02/28 03:18:50;;;;;;;2.50;2.40;;;;;;;0.62;71.51;102638.63;6157045;23;20024;-66
2022/02/28 03:21:16;;;;;;;4.00;3.83;;;;;;;0.56;71.42;102639.38;6147098;23;20005;-65
2022/02/28 03:23:43;;;;;;;2.50;2.40;;;;;;;0.54;71.60;102637.59;6153623;23;20449;-68
2022/02/28 03:26:09;;;;;;;2.50;2.40;;;;;;;-0.06;72.14;102539.09;6171756;23;20393;-66
2022/02/28 03:28:36;;;;;;;2.55;2.45;;;;;;;0.38;71.31;102624.38;6153160;23;20112;-67
2022/02/28 03:31:02;;;;;;;2.53;2.42;;;;;;;0.47;72.05;102646.06;6144203;23;20020;-67
2022/02/28 03:33:29;;;;;;;4.45;4.25;;;;;;;0.13;71.68;102630.72;6151986;23;20023;-66
2022/02/28 03:35:55;;;;;;;2.53;2.42;;;;;;;0.36;72.79;102651.88;6171218;23;20039;-66
2022/02/28 03:38:21;;;;;;;4.55;4.35;;;;;;;-0.47;72.26;102518.41;6161601;23;20026;-66
2022/02/28 03:40:48;;;;;;;2.30;2.20;;;;;;;-0.33;72.81;102547.09;6147945;23;20021;-65
2022/02/28 03:43:15;;;;;;;3.28;3.17;;;;;;;0.38;72.49;102649.31;6153545;23;20025;-66
2022/02/28 03:45:41;;;;;;;2.50;2.40;;;;;;;0.14;72.07;102604.06;6161945;23;20076;-66
2022/02/28 03:48:08;;;;;;;2.78;2.67;;;;;;;0.37;72.22;102653.63;6143899;23;20031;-66
2022/02/28 03:50:34;;;;;;;2.60;2.50;;;;;;;0.26;72.30;102660.28;6112225;23;20198;-66
2022/02/28 03:53:00;;;;;;;2.83;2.72;;;;;;;-0.45;72.57;102544.25;6184571;23;20537;-65
2022/02/28 03:55:27;;;;;;;3.78;3.65;;;;;;;0.04;73.20;102632.22;6146039;23;20035;-66
2022/02/28 03:57:53;;;;;;;2.63;2.53;;;;;;;0.09;73.38;102654.72;6136847;23;20089;-66
2022/02/28 04:00:20;;;;;;;3.92;3.75;;;;;;;-0.46;72.76;102573.44;6152465;23;20042;-66
2022/02/28 04:02:46;;;;;;;2.60;2.50;;;;;;;-0.32;73.18;102599.56;6145570;23;20328;-66
2022/02/28 04:05:13;;;;;;;2.72;2.63;;;;;;;0.05;73.35;102663.22;6164901;23;20028;-67
2022/02/28 04:07:40;;;;;;;2.33;2.22;;;;;;;-0.57;73.77;102555.13;6150593;23;21514;-66
2022/02/28 04:10:07;;;;;;;2.47;2.38;;;;;;;-0.29;73.33;102597.06;6124945;23;20485;-66
2022/02/28 04:12:34;;;;;;;3.05;2.95;;;;;;;0.13;72.91;102663.41;6170099;23;20029;-66
2022/02/28 04:15:00;;;;;;;2.40;2.30;;;;;;;0.11;73.07;102665.09;6155927;23;20528;-66
2022/02/28 04:17:27;;;;;;;4.13;3.92;;;;;;;0.08;73.16;102650.41;6108733;23;20017;-66
2022/02/28 04:19:54;;;;;;;2.50;2.40;;;;;;;0.06;73.49;102662.41;6127299;23;20016;-66
2022/02/28 04:22:22;;;;;;;4.65;4.45;;;;;;;-0.04;72.77;102648.41;6134760;23;20012;-66
2022/02/28 04:24:49;;;;;;;2.50;2.40;;;;;;;-0.24;73.89;102611.81;6147815;23;20035;-67
2022/02/28 04:27:15;;;;;;;3.38;3.28;;;;;;;-0.48;73.48;102585.44;6125462;23;20089;-68
2022/02/28 04:29:43;;;;;;;2.60;2.50;;;;;;;-0.18;74.27;102649.81;6163533;23;20029;-67
2022/02/28 04:32:10;;;;;;;2.35;2.25;;;;;;;-0.23;73.99;102648.81;6168300;23;20020;-67
2022/02/28 04:34:36;;;;;;;2.35;2.25;;;;;;;-0.99;74.90;102537.78;6149337;23;20021;-68
2022/02/28 04:37:03;;;;;;;2.30;2.20;;;;;;;-0.47;74.73;102634.47;6149909;23;20473;-65
2022/02/28 04:39:29;;;;;;;2.60;2.50;;;;;;;-1.15;75.61;102535.66;6179015;23;20084;-66
2022/02/28 04:41:56;;;;;;;2.72;2.63;;;;;;;-0.79;75.98;102602.72;6139343;23;20203;-67
2022/02/28 04:44:22;;;;;;;3.67;3.45;;;;;;;-0.61;76.15;102630.69;6166642;23;20441;-67
2022/02/28 04:46:49;;;;;;;2.55;2.45;;;;;;;-1.08;76.37;102569.34;6132961;23;20070;-67
2022/02/28 04:49:15;;;;;;;2.50;2.40;;;;;;;-0.70;76.75;102645.91;6184245;23;20212;-67
2022/02/28 04:51:42;;;;;;;2.33;2.22;;;;;;;-0.86;76.92;102635.22;6142544;23;20250;-67
2022/02/28 04:54:08;;;;;;;2.67;2.58;;;;;;;-0.82;77.24;102644.78;6162092;23;20040;-66
2022/02/28 04:56:34;;;;;;;3.55;3.35;;;;;;;-1.56;76.57;102527.69;6124674;23;20030;-66
2022/02/28 04:59:01;;;;;;;3.10;2.90;;;;;;;-0.82;77.87;102643.91;6172738;23;20019;-66
2022/02/28 05:01:27;;;;;;;4.78;4.47;;;;;;;-0.77;77.41;102639.72;6108534;23;20013;-66
2022/02/28 05:03:58;;;;;;;2.60;2.50;;;;;;;-1.14;77.42;102558.00;6164537;23;20020;-66
2022/02/28 05:06:25;;;;;;;4.75;4.53;;;;;;;-0.91;77.02;102618.75;6156682;23;20015;-67
2022/02/28 05:08:51;;;;;;;2.70;2.60;;;;;;;-0.77;76.78;102639.72;6133947;23;20040;-67
2022/02/28 05:11:18;;;;;;;4.10;3.90;;;;;;;-0.89;76.74;102649.72;6152118;23;20020;-67
2022/02/28 05:13:45;;;;;;;2.60;2.50;;;;;;;-1.54;77.64;102564.66;6162209;23;20573;-67
2022/02/28 05:16:11;;;;;;;2.42;2.33;;;;;;;-1.12;77.81;102651.66;6145236;23;20022;-67
2022/02/28 05:18:38;;;;;;;2.33;2.22;;;;;;;-1.06;78.23;102644.13;6150872;23;20445;-68
2022/02/28 05:21:04;;;;;;;2.72;2.63;;;;;;;-1.21;77.91;102614.50;6155462;23;20469;-67
2022/02/28 05:23:31;;;;;;;2.95;2.85;;;;;;;-1.26;77.96;102577.47;6167506;23;20059;-66
2022/02/28 05:26:00;;;;;;;2.40;2.30;;;;;;;-0.90;77.37;102638.53;6166639;23;20044;-66
2022/02/28 05:28:41;;;;;;;2.47;2.38;;;;;;;-1.23;77.83;102574.09;6175160;23;20351;-64
2022/02/28 05:31:08;;;;;;;2.38;2.28;;;;;;;-1.24;77.55;102544.91;6138709;23;20021;-65
2022/02/28 05:33:35;;;;;;;2.60;2.50;;;;;;;-0.87;77.13;102606.81;6138031;23;20025;-66
2022/02/28 05:36:03;;;;;;;2.40;2.30;;;;;;;-0.69;77.16;102632.19;6195586;23;20024;-66
2022/02/28 05:38:30;;;;;;;3.03;2.92;;;;;;;-1.09;77.23;102559.88;6165492;23;20032;-66
2022/02/28 05:40:57;;;;;;;2.80;2.70;;;;;;;-0.71;77.25;102632.16;6181875;23;20039;-66
2022/02/28 05:43:24;;;;;;;4.15;3.95;;;;;;;-1.28;76.85;102543.06;6180751;23;20086;-66
2022/02/28 05:45:51;;;;;;;2.60;2.50;;;;;;;-0.92;76.52;102606.72;6162461;23;20014;-66
2022/02/28 05:48:17;;;;;;;3.25;3.15;;;;;;;-1.20;77.28;102566.47;6172472;23;20091;-67
2022/02/28 05:50:44;;;;;;;2.47;2.38;;;;;;;-0.80;76.86;102649.97;6173681;23;20041;-67
2022/02/28 05:53:10;;;;;;;2.30;2.20;;;;;;;-2.15;77.09;102432.56;6168962;23;20028;-67
2022/02/28 05:55:38;;;;;;;2.60;2.50;;;;;;;-1.17;77.16;102596.56;6122655;23;20009;-67
2022/02/28 05:58:04;;;;;;;2.40;2.30;;;;;;;-0.87;78.16;102646.34;6175939;23;20061;-67
2022/02/28 06:00:31;;;;;;;3.30;3.20;;;;;;;-1.33;77.10;102562.66;6153748;23;20008;-67
2022/02/28 06:02:57;;;;;;;2.30;2.20;;;;;;;-1.03;77.28;102610.69;6145081;23;20466;-67
2022/02/28 06:05:24;;;;;;;3.65;3.50;;;;;;;-0.76;76.89;102643.16;6161919;23;20031;-66
2022/02/28 06:07:50;;;;;;;2.40;2.30;;;;;;;-1.17;76.65;102588.84;6176557;23;20008;-67
2022/02/28 06:10:17;;;;;;;3.08;2.97;;;;;;;-0.87;76.99;102646.34;6159213;23;20099;-67
2022/02/28 06:12:43;;;;;;;2.30;2.20;;;;;;;-2.17;77.79;102416.22;6184364;23;20755;-68
2022/02/28 06:15:29;;;;;;;4.03;3.85;;;;;;;-1.31;77.36;102573.88;6169815;23;20036;-68
2022/02/28 06:18:00;;;;;;;2.20;2.10;;;;;;;-0.84;76.61;102654.16;6150916;23;20025;-67
2022/02/28 06:20:28;;;;;;;4.03;3.85;;;;;;;-0.80;77.17;102655.13;6167856;23;20065;-68
2022/02/28 06:22:54;;;;;;;2.55;2.45;;;;;;;-0.81;77.54;102650.78;6171445;23;20017;-68
2022/02/28 06:25:21;;;;;;;3.35;3.25;;;;;;;-1.45;77.06;102562.34;6166358;23;20650;-68
2022/02/28 06:27:47;;;;;;;2.70;2.60;;;;;;;-0.77;77.63;102664.66;6166228;23;20337;-69
2022/02/28 06:30:14;;;;;;;2.67;2.58;;;;;;;-0.76;77.36;102668.94;6173493;23;20642;-71
2022/02/28 06:32:40;;;;;;;2.45;2.35;;;;;;;-1.26;77.48;102574.91;6158616;23;20017;-70
2022/02/28 06:35:08;;;;;;;2.20;2.10;;;;;;;-0.89;77.19;102647.16;6170439;23;20637;-69
2022/02/28 06:37:34;;;;;;;2.50;2.40;;;;;;;-0.65;77.45;102663.25;6174877;23;20013;-70
2022/02/28 06:40:07;;;;;;;2.17;2.08;;;;;;;-0.66;77.01;102670.94;6177178;23;20082;-69
2022/02/28 06:42:34;;;;;;;2.60;2.50;;;;;;;-0.66;77.62;102677.00;6184140;23;20023;-69
2022/02/28 06:45:00;;;;;;;2.28;2.17;;;;;;;-1.10;77.00;102606.19;6177705;23;20036;-70
2022/02/28 06:47:27;;;;;;;4.10;3.90;;;;;;;-0.64;77.57;102674.47;6172276;23;20287;-70
2022/02/28 06:49:53;;;;;;;3.50;3.30;;;;;;;-1.13;76.92;102595.81;6161612;23;20318;-69
2022/02/28 06:52:20;;;;;;;3.90;3.75;;;;;;;-1.01;77.08;102599.59;6170945;23;20040;-69
2022/02/28 06:54:47;;;;;;;2.42;2.33;;;;;;;-0.73;77.25;102646.72;6147691;23;20029;-70
2022/02/28 06:57:14;;;;;;;4.47;4.28;;;;;;;-0.74;76.77;102641.50;6172473;23;20499;-69
2022/02/28 06:59:40;;;;;;;2.25;2.15;;;;;;;-1.08;77.15;102571.94;6150789;23;20061;-69
2022/02/28 07:02:06;;;;;;;2.83;2.72;;;;;;;-1.03;77.01;102582.34;6178761;23;20084;-69
2022/02/28 07:04:33;;;;;;;2.85;2.75;;;;;;;-0.64;76.14;102616.00;6141220;23;20028;-69
2022/02/28 07:07:00;;;;;;;2.50;2.40;;;;;;;-0.24;76.25;102673.75;6145889;23;20368;-69
2022/02/28 07:09:26;;;;;;;3.78;3.65;;;;;;;-0.18;75.63;102665.28;6177445;23;20028;-70
2022/02/28 07:11:53;;;;;;;2.30;2.20;;;;;;;-0.35;75.34;102621.00;6171301;23;20026;-70
2022/02/28 07:14:19;;;;;;;4.07;3.88;;;;;;;0.09;74.61;102671.91;6175902;23;20041;-70
2022/02/28 07:16:53;;;;;;;3.03;2.92;;;;;;;0.21;74.08;102666.16;6163311;23;20137;-69
2022/02/28 07:19:19;;;;;;;6.53;5.35;;;;;;;0.16;73.82;102630.78;6195328;23;20012;-70
2022/02/28 07:21:45;;;;;;;2.70;2.60;;;;;;;-0.06;73.47;102579.50;6163619;23;20091;-69
2022/02/28 07:24:12;;;;;;;2.63;2.53;;;;;;;0.36;72.51;102627.75;6142717;23;20035;-70
2022/02/28 07:26:38;;;;;;;2.70;2.60;;;;;;;-0.76;72.02;102434.38;6191378;23;20348;-70
2022/02/28 07:29:06;;;;;;;2.60;2.50;;;;;;;0.83;71.31;102671.78;6170237;23;20079;-70
2022/02/28 07:31:35;;;;;;;2.63;2.53;;;;;;;0.92;71.29;102665.91;6193841;22;20037;-71
2022/02/28 07:34:01;;;;;;;2.65;2.55;;;;;;;0.98;70.66;102668.63;6167064;23;20587;-70
2022/02/28 07:36:28;;;;;;;3.90;3.75;;;;;;;-0.21;70.72;102459.63;6188633;23;20172;-70
2022/02/28 07:38:54;;;;;;;2.60;2.50;;;;;;;1.18;70.14;102679.34;6158698;23;20315;-69
2022/02/28 07:41:21;;;;;;;4.03;3.83;;;;;;;1.21;69.93;102673.38;6191943;23;20023;-69
2022/02/28 07:43:47;;;;;;;2.60;2.50;;;;;;;1.27;70.03;102673.47;6178199;23;20399;-69
2022/02/28 07:46:14;;;;;;;3.15;3.05;;;;;;;1.41;69.13;102668.56;6175178;23;20008;-70
2022/02/28 07:48:46;;;;;;;2.80;2.70;;;;;;;1.25;68.84;102626.03;6175930;23;20012;-70
2022/02/28 07:51:12;;;;;;;2.65;2.55;;;;;;;0.71;68.41;102522.53;6194969;23;20016;-71
2022/02/28 07:53:39;;;;;;;2.90;2.70;;;;;;;1.73;67.63;102679.44;6181581;23;20158;-69
2022/02/28 07:56:09;;;;;;;2.50;2.40;;;;;;;1.65;66.98;102645.69;6163609;23;20013;-70
2022/02/28 07:58:35;;;;;;;2.80;2.70;;;;;;;0.44;66.94;102434.19;6168184;23;20362;-69
2022/02/28 08:01:02;;;;;;;2.70;2.60;;;;;;;1.77;66.62;102637.25;6189424;23;20044;-70
2022/02/28 08:03:28;;;;;;;3.92;3.78;;;;;;;1.66;65.94;102592.19;6165822;23;20020;-68
2022/02/28 08:05:55;;;;;;;2.75;2.65;;;;;;;1.94;65.92;102620.22;6184054;23;20025;-69
2022/02/28 08:08:22;;;;;;;3.35;3.25;;;;;;;2.27;66.35;102668.19;6159614;23;20032;-69
2022/02/28 08:10:49;;;;;;;2.90;2.80;;;;;;;2.38;64.49;102670.91;6162461;23;20014;-69
2022/02/28 08:13:15;;;;;;;3.60;3.45;;;;;;;2.48;64.41;102666.72;6177867;23;20017;-70
2022/02/28 08:15:42;;;;;;;2.75;2.65;;;;;;;2.15;63.55;102585.13;6144598;23;20207;-70
2022/02/28 08:18:09;;;;;;;3.90;3.42;;;;;;;2.67;63.42;102666.13;6155706;23;20512;-70
2022/02/28 08:20:36;;;;;;;2.80;2.70;;;;;;;2.41;62.70;102624.34;6141051;23;20024;-70
2022/02/28 08:23:04;;;;;;;3.03;2.92;;;;;;;2.86;62.23;102679.31;6164784;23;20020;-70
2022/02/28 08:25:31;;;;;;;4.15;3.95;;;;;;;2.36;61.57;102593.16;6152103;23;20264;-70
2022/02/28 08:27:57;;;;;;;3.10;3.00;;;;;;;2.88;61.19;102664.63;6192130;23;20016;-68
2022/02/28 08:30:24;;;;;;;4.75;4.55;;;;;;;3.11;60.62;102689.09;6168932;23;20028;-70
2022/02/28 08:32:51;;;;;;;3.03;2.92;;;;;;;3.23;60.30;102685.78;6197036;23;20606;-69
2022/02/28 08:35:18;;;;;;;3.97;3.80;;;;;;;3.32;59.46;102690.19;6160492;23;20047;-68
2022/02/28 08:37:46;;;;;;;2.90;2.80;;;;;;;2.84;59.13;102606.66;6154092;23;20025;-68
2022/02/28 08:40:16;;;;;;;2.70;2.60;;;;;;;3.26;58.37;102653.78;6148663;23;20032;-69
2022/02/28 08:42:42;;;;;;;3.30;3.10;;;;;;;3.44;59.08;102681.66;6194881;23;20067;-68
2022/02/28 08:45:09;;;;;;;2.80;2.70;;;;;;;3.55;57.98;102691.28;6181580;23;20106;-68
2022/02/28 08:47:37;;;;;;;2.90;2.80;;;;;;;2.99;59.10;102583.50;6153341;23;21546;-69
2022/02/28 08:50:06;;;;;;;2.90;2.80;;;;;;;3.77;57.98;102694.94;6169137;23;20082;-69
2022/02/28 08:52:33;;;;;;;3.53;3.22;;;;;;;3.66;57.90;102670.59;6140755;23;20456;-68
2022/02/28 08:55:00;;;;;;;3.25;3.15;;;;;;;3.64;58.30;102653.25;6192824;23;20044;-68
2022/02/28 08:57:27;;;;;;;4.65;4.45;;;;;;;3.40;56.15;102562.22;6162620;23;20028;-68
2022/02/28 08:59:53;;;;;;;3.05;2.95;;;;;;;2.90;56.16;102473.63;6139381;23;20044;-67
2022/02/28 09:02:22;;;;;;;3.83;3.70;;;;;;;4.25;55.51;102684.00;6190258;23;20444;-67
2022/02/28 09:04:48;;;;;;;2.80;2.70;;;;;;;3.87;55.43;102627.44;6161975;23;20052;-67
2022/02/28 09:07:15;;;;;;;3.47;3.38;;;;;;;4.28;55.19;102692.69;6143002;23;20077;-67
2022/02/28 09:09:41;;;;;;;3.38;3.20;;;;;;;4.38;55.23;102691.00;6149328;23;20453;-65
2022/02/28 09:12:09;;;;;;;3.00;2.90;;;;;;;4.16;55.87;102638.03;6149794;23;20532;-66
2022/02/28 09:14:36;;;;;;;3.15;3.05;;;;;;;4.57;54.54;102694.56;6197801;23;20034;-67
2022/02/28 09:17:04;;;;;;;3.50;3.40;;;;;;;3.91;53.48;102587.66;6137998;23;20044;-68
2022/02/28 09:19:30;;;;;;;4.32;4.13;;;;;;;4.62;53.57;102677.25;6157660;23;20310;-68
2022/02/28 09:21:57;;;;;;;3.10;3.00;;;;;;;4.47;52.90;102640.78;6200583;23;20028;-67
2022/02/28 09:24:24;;;;;;;4.35;4.15;;;;;;;4.74;53.32;102668.66;6162420;23;20095;-67
2022/02/28 09:26:50;;;;;;;3.10;3.00;;;;;;;4.80;51.84;102663.47;6180535;22;20051;-66
2022/02/28 09:29:17;;;;;;;3.85;3.67;;;;;;;3.58;51.01;102439.47;6206681;22;20008;-68
2022/02/28 09:31:43;;;;;;;3.20;3.10;;;;;;;5.08;50.51;102690.44;6150000;23;20198;-69
2022/02/28 09:34:10;;;;;;;3.33;3.13;;;;;;;5.13;51.56;102690.44;6205238;22;20358;-68
2022/02/28 09:36:36;;;;;;;3.88;3.67;;;;;;;5.20;51.52;102677.44;6167054;23;20076;-68
2022/02/28 09:39:03;;;;;;;3.20;3.10;;;;;;;5.43;49.98;102686.16;6174886;23;20081;-67
2022/02/28 09:41:35;;;;;;;3.37;3.27;;;;;;;5.55;49.93;102673.16;6181163;23;20023;-68
2022/02/28 09:44:03;;;;;;;3.75;3.45;;;;;;;5.11;49.96;102593.28;6178952;23;20028;-68
2022/02/28 09:46:30;;;;;;;4.57;4.38;;;;;;;4.60;48.70;102478.75;6173278;23;20036;-68
2022/02/28 09:49:02;;;;;;;3.47;3.38;;;;;;;5.76;48.46;102672.28;6150162;23;20092;-67
2022/02/28 09:51:32;;;;;;;4.40;4.20;;;;;;;5.40;47.90;102594.16;6154634;23;20376;-67
2022/02/28 09:53:58;;;;;;;3.45;3.20;;;;;;;6.02;48.30;102679.28;6146377;23;20041;-67
2022/02/28 09:56:25;;;;;;;4.82;4.63;;;;;;;5.90;47.68;102634.06;6180185;23;20258;-68
2022/02/28 09:58:53;;;;;;;3.30;3.20;;;;;;;5.78;46.93;102595.00;6156088;23;20079;-68
2022/02/28 10:01:34;;;;;;;3.30;3.20;;;;;;;6.32;46.98;102671.38;6200886;23;20490;-68
2022/02/28 10:04:01;;;;;;;3.33;3.22;;;;;;;5.94;46.14;102583.69;6166683;23;20030;-67
2022/02/28 10:06:27;;;;;;;4.80;4.60;;;;;;;6.45;46.72;102659.16;6203112;23;20381;-67
2022/02/28 10:09:03;;;;;;;3.80;3.60;;;;;;;6.62;46.85;102684.34;6173029;23;20032;-68
2022/02/28 10:11:41;;;;;;;4.68;4.47;;;;;;;6.68;44.48;102686.91;6222968;22;20020;-68
2022/02/28 10:14:10;;;;;;;5.22;3.50;;;;;;;6.48;44.96;102640.91;6142170;23;20009;-68
2022/02/28 10:16:41;;;;;;;3.40;3.30;;;;;;;6.73;45.06;102651.22;6160401;23;21243;-68
2022/02/28 10:19:09;;;;;;;3.70;3.50;;;;;;;6.87;44.24;102682.47;6207679;23;20028;-69
2022/02/28 10:21:38;;;;;;;3.70;3.50;;;;;;;7.02;45.19;102677.19;6165667;23;20034;-68
2022/02/28 10:24:07;;;;;;;3.30;3.20;;;;;;;7.04;44.05;102688.47;6178551;23;20034;-68
2022/02/28 10:26:45;;;;;;;3.92;3.72;;;;;;;7.06;43.78;102686.72;6162995;23;20052;-68
2022/02/28 10:29:17;;;;;;;4.15;3.95;;;;;;;7.28;44.84;102692.69;6139599;23;20091;-68
2022/02/28 10:31:46;;;;;;;3.35;3.25;;;;;;;7.43;43.57;102688.25;6206476;23;20047;-68
2022/02/28 10:34:22;;;;;;;3.78;3.60;;;;;;;7.43;43.41;102691.72;6183153;23;20013;-69
2022/02/28 10:36:58;;;;;;;3.63;3.42;;;;;;;7.38;43.08;102689.13;6156294;23;20013;-68
2022/02/28 10:39:24;;;;;;;4.80;4.60;;;;;;;7.44;43.63;102695.19;6179217;23;20067;-69
2022/02/28 10:41:52;;;;;;;3.35;3.25;;;;;;;7.68;43.01;102686.31;6166713;23;20091;-69
2022/02/28 10:44:20;;;;;;;5.60;5.30;;;;;;;7.48;42.85;102637.69;6188473;23;20047;-69
2022/02/28 10:46:48;;;;;;;3.40;3.30;;;;;;;6.91;43.20;102546.72;6179975;23;20239;-69
2022/02/28 10:49:21;;;;;;;4.07;3.83;;;;;;;7.79;43.05;102681.84;6198325;23;20020;-69
2022/02/28 10:51:53;;;;;;;3.75;3.63;;;;;;;7.45;41.85;102593.28;6177438;23;20028;-69
2022/02/28 10:54:25;;;;;;;5.30;5.00;;;;;;;7.64;41.36;102622.75;6196311;23;20024;-69
2022/02/28 10:56:57;;;;;;;3.40;3.30;;;;;;;7.88;40.52;102678.31;6179686;23;20097;-68
2022/02/28 10:59:37;;;;;;;4.75;4.55;;;;;;;7.76;41.28;102668.84;6200177;23;20304;-67
2022/02/28 11:02:04;;;;;;;4.20;3.90;;;;;;;7.82;40.77;102641.75;6169234;23;20039;-68
2022/02/28 11:04:34;;;;;;;4.53;4.32;;;;;;;8.02;40.94;102660.75;6169162;23;20027;-68
2022/02/28 11:07:01;;;;;;;3.53;3.42;;;;;;;8.12;40.99;102658.91;6177194;23;20035;-68
2022/02/28 11:09:42;;;;;;;4.72;4.53;;;;;;;7.88;40.61;102620.81;6179619;23;20012;-68
2022/02/28 11:12:24;;;;;;;3.72;3.53;;;;;;;8.33;40.70;102652.56;6181131;23;20076;-68
2022/02/28 11:14:52;;;;;;;3.58;3.47;;;;;;;8.45;41.24;102651.59;6175515;23;20091;-68
2022/02/28 11:17:22;;;;;;;4.57;4.38;;;;;;;8.52;40.23;102650.59;6159401;23;20055;-68
2022/02/28 11:19:51;;;;;;;4.00;3.80;;;;;;;7.28;39.15;102456.78;6151901;23;20040;-68
2022/02/28 11:22:19;;;;;;;4.82;4.63;;;;;;;8.53;39.32;102647.97;6193645;23;20307;-67
2022/02/28 11:24:46;;;;;;;3.80;3.60;;;;;;;8.54;40.32;102609.63;6160182;23;20372;-68
2022/02/28 11:27:14;;;;;;;3.63;3.53;;;;;;;7.98;39.48;102499.56;6195873;23;20079;-68
2022/02/28 11:29:42;;;;;;;3.50;3.40;;;;;;;8.85;39.30;102644.09;6160599;23;20206;-68
2022/02/28 11:32:10;;;;;;;3.60;3.50;;;;;;;8.43;39.13;102559.16;6160001;23;20016;-68